sensor_id;sensor_type;location;lat;lon;timestamp;temperature;humidity
7325;DHT22;3703;48.016;7.802;2023-06-26T00:01:39;23.90;99.90
7325;DHT22;3703;48.016;7.802;2023-06-26T00:04:08;23.70;99.90
7325;DHT22;3703;48.016;7.802;2023-06-26T00:06:40;23.60;99.90
7325;DHT22;3703;48.016;7.802;2023-06-26T00:09:07;24.10;99.90
7325;DHT22;3703;48.016;7.802;2023-06-26T00:11:36;24.10;99.90
7325;DHT22;3703;48.016;7.802;2023-06-26T00:14:03;24.40;99.90
7325;DHT22;3703;48.016;7.802;2023-06-26T00:16:30;24.40;99.90
7325;DHT22;3703;48.016;7.802;2023-06-26T00:18:58;24.50;99.90
7325;DHT22;3703;48.016;7.802;2023-06-26T00:21:25;24.50;99.90
7325;DHT22;3703;48.016;7.802;2023-06-26T00:23:52;24.60;99.90
7325;DHT22;3703;48.016;7.802;2023-06-26T00:26:20;24.80;99.90
7325;DHT22;3703;48.016;7.802;2023-06-26T00:28:48;24.80;99.90
7325;DHT22;3703;48.016;7.802;2023-06-26T00:31:15;24.70;99.90
7325;DHT22;3703;48.016;7.802;2023-06-26T00:33:43;24.90;99.90
7325;DHT22;3703;48.016;7.802;2023-06-26T00:36:10;24.80;99.90
7325;DHT22;3703;48.016;7.802;2023-06-26T00:38:37;24.80;99.90
7325;DHT22;3703;48.016;7.802;2023-06-26T00:41:04;24.70;99.90
7325;DHT22;3703;48.016;7.802;2023-06-26T00:43:38;24.60;99.90
7325;DHT22;3703;48.016;7.802;2023-06-26T00:46:09;24.70;99.90
7325;DHT22;3703;48.016;7.802;2023-06-26T00:48:37;24.60;99.90
7325;DHT22;3703;48.016;7.802;2023-06-26T00:51:05;24.60;99.90
7325;DHT22;3703;48.016;7.802;2023-06-26T00:53:32;24.40;99.90
7325;DHT22;3703;48.016;7.802;2023-06-26T00:56:00;24.30;1.00
7325;DHT22;3703;48.016;7.802;2023-06-26T00:58:28;24.20;1.00
7325;DHT22;3703;48.016;7.802;2023-06-26T01:00:55;24.00;1.00
7325;DHT22;3703;48.016;7.802;2023-06-26T01:03:25;24.20;1.00
7325;DHT22;3703;48.016;7.802;2023-06-26T01:05:53;24.20;1.00
7325;DHT22;3703;48.016;7.802;2023-06-26T01:08:21;24.00;1.00
7325;DHT22;3703;48.016;7.802;2023-06-26T01:10:49;23.90;1.80
7325;DHT22;3703;48.016;7.802;2023-06-26T01:13:16;24.10;32.60
7325;DHT22;3703;48.016;7.802;2023-06-26T01:15:44;23.90;73.50
7325;DHT22;3703;48.016;7.802;2023-06-26T01:18:12;23.90;99.90
7325;DHT22;3703;48.016;7.802;2023-06-26T01:20:43;24.00;99.90
7325;DHT22;3703;48.016;7.802;2023-06-26T01:23:16;23.80;99.90
7325;DHT22;3703;48.016;7.802;2023-06-26T01:28:41;23.90;99.90
7325;DHT22;3703;48.016;7.802;2023-06-26T01:31:10;23.90;99.90
7325;DHT22;3703;48.016;7.802;2023-06-26T01:33:38;23.90;99.90
7325;DHT22;3703;48.016;7.802;2023-06-26T01:36:06;23.80;1.00
7325;DHT22;3703;48.016;7.802;2023-06-26T01:38:34;24.00;1.00
7325;DHT22;3703;48.016;7.802;2023-06-26T01:41:02;24.00;1.00
7325;DHT22;3703;48.016;7.802;2023-06-26T01:43:36;23.90;1.00
7325;DHT22;3703;48.016;7.802;2023-06-26T01:46:23;23.90;1.00
7325;DHT22;3703;48.016;7.802;2023-06-26T01:48:57;23.80;1.00
7325;DHT22;3703;48.016;7.802;2023-06-26T01:51:30;23.80;1.00
7325;DHT22;3703;48.016;7.802;2023-06-26T01:54:01;23.70;49.40
7325;DHT22;3703;48.016;7.802;2023-06-26T01:56:29;23.80;99.90
7325;DHT22;3703;48.016;7.802;2023-06-26T01:59:00;23.70;99.90
7325;DHT22;3703;48.016;7.802;2023-06-26T02:01:31;23.70;99.90
7325;DHT22;3703;48.016;7.802;2023-06-26T02:03:59;23.70;99.90
7325;DHT22;3703;48.016;7.802;2023-06-26T02:06:26;23.70;99.90
7325;DHT22;3703;48.016;7.802;2023-06-26T02:08:53;24.70;1.00
7325;DHT22;3703;48.016;7.802;2023-06-26T02:11:22;22.70;1.00
7325;DHT22;3703;48.016;7.802;2023-06-26T02:13:49;23.60;1.00
7325;DHT22;3703;48.016;7.802;2023-06-26T02:16:18;23.60;1.00
7325;DHT22;3703;48.016;7.802;2023-06-26T02:18:45;23.50;1.00
7325;DHT22;3703;48.016;7.802;2023-06-26T02:21:13;23.50;1.00
7325;DHT22;3703;48.016;7.802;2023-06-26T02:23:40;23.60;1.00
7325;DHT22;3703;48.016;7.802;2023-06-26T02:26:07;23.70;1.00
7325;DHT22;3703;48.016;7.802;2023-06-26T02:28:35;23.70;99.90
7325;DHT22;3703;48.016;7.802;2023-06-26T02:31:02;23.60;99.90
7325;DHT22;3703;48.016;7.802;2023-06-26T02:33:30;23.50;1.00
7325;DHT22;3703;48.016;7.802;2023-06-26T02:35:58;23.30;1.00
7325;DHT22;3703;48.016;7.802;2023-06-26T02:38:25;23.30;17.30
7325;DHT22;3703;48.016;7.802;2023-06-26T02:40:52;23.40;18.60
7325;DHT22;3703;48.016;7.802;2023-06-26T02:43:19;23.30;99.90
7325;DHT22;3703;48.016;7.802;2023-06-26T02:45:46;23.20;99.90
7325;DHT22;3703;48.016;7.802;2023-06-26T02:48:13;23.30;99.90
7325;DHT22;3703;48.016;7.802;2023-06-26T02:50:42;23.30;99.90
7325;DHT22;3703;48.016;7.802;2023-06-26T02:53:11;23.40;99.90
7325;DHT22;3703;48.016;7.802;2023-06-26T02:55:38;23.30;99.90
7325;DHT22;3703;48.016;7.802;2023-06-26T02:58:06;23.30;99.90
7325;DHT22;3703;48.016;7.802;2023-06-26T03:00:33;23.10;99.90
7325;DHT22;3703;48.016;7.802;2023-06-26T03:03:00;23.10;99.90
7325;DHT22;3703;48.016;7.802;2023-06-26T03:05:27;23.10;99.90
7325;DHT22;3703;48.016;7.802;2023-06-26T03:07:56;23.10;99.90
7325;DHT22;3703;48.016;7.802;2023-06-26T03:10:23;23.10;99.90
7325;DHT22;3703;48.016;7.802;2023-06-26T03:12:51;23.10;99.90
7325;DHT22;3703;48.016;7.802;2023-06-26T03:15:18;23.10;1.00
7325;DHT22;3703;48.016;7.802;2023-06-26T03:17:45;22.90;1.00
7325;DHT22;3703;48.016;7.802;2023-06-26T03:20:13;23.00;1.00
7325;DHT22;3703;48.016;7.802;2023-06-26T03:22:42;23.00;1.00
7325;DHT22;3703;48.016;7.802;2023-06-26T03:25:11;22.90;1.00
7325;DHT22;3703;48.016;7.802;2023-06-26T03:27:38;22.80;99.90
7325;DHT22;3703;48.016;7.802;2023-06-26T03:30:06;23.00;99.90
7325;DHT22;3703;48.016;7.802;2023-06-26T03:32:34;22.90;99.90
7325;DHT22;3703;48.016;7.802;2023-06-26T03:35:01;22.90;99.90
7325;DHT22;3703;48.016;7.802;2023-06-26T03:37:28;23.00;1.00
7325;DHT22;3703;48.016;7.802;2023-06-26T03:39:56;23.00;28.70
7325;DHT22;3703;48.016;7.802;2023-06-26T03:42:24;22.90;99.90
7325;DHT22;3703;48.016;7.802;2023-06-26T03:44:51;22.80;99.90
7325;DHT22;3703;48.016;7.802;2023-06-26T03:47:18;22.80;1.00
7325;DHT22;3703;48.016;7.802;2023-06-26T03:49:46;22.70;15.30
7325;DHT22;3703;48.016;7.802;2023-06-26T03:52:13;22.70;99.90
7325;DHT22;3703;48.016;7.802;2023-06-26T03:54:40;22.70;99.90
7325;DHT22;3703;48.016;7.802;2023-06-26T03:57:07;22.90;1.00
7325;DHT22;3703;48.016;7.802;2023-06-26T03:59:36;22.60;99.90
7325;DHT22;3703;48.016;7.802;2023-06-26T04:02:03;22.50;1.00
7325;DHT22;3703;48.016;7.802;2023-06-26T04:04:31;22.60;1.00
7325;DHT22;3703;48.016;7.802;2023-06-26T04:06:58;22.60;43.20
7325;DHT22;3703;48.016;7.802;2023-06-26T04:09:25;22.70;1.00
7325;DHT22;3703;48.016;7.802;2023-06-26T04:11:52;22.70;1.00
7325;DHT22;3703;48.016;7.802;2023-06-26T04:14:20;22.60;57.90
7325;DHT22;3703;48.016;7.802;2023-06-26T04:16:48;22.60;99.90
7325;DHT22;3703;48.016;7.802;2023-06-26T04:19:15;21.90;1.00
7325;DHT22;3703;48.016;7.802;2023-06-26T04:21:43;22.70;28.10
7325;DHT22;3703;48.016;7.802;2023-06-26T04:24:10;22.80;1.00
7325;DHT22;3703;48.016;7.802;2023-06-26T04:26:38;22.60;99.90
7325;DHT22;3703;48.016;7.802;2023-06-26T04:29:07;22.60;1.00
7325;DHT22;3703;48.016;7.802;2023-06-26T04:31:34;22.60;1.00
7325;DHT22;3703;48.016;7.802;2023-06-26T04:34:03;22.60;1.00
7325;DHT22;3703;48.016;7.802;2023-06-26T04:36:30;22.70;99.90
7325;DHT22;3703;48.016;7.802;2023-06-26T04:38:58;23.00;1.00
7325;DHT22;3703;48.016;7.802;2023-06-26T04:41:26;22.90;1.00
7325;DHT22;3703;48.016;7.802;2023-06-26T04:43:53;23.00;30.20
7325;DHT22;3703;48.016;7.802;2023-06-26T04:46:20;23.30;99.90
7325;DHT22;3703;48.016;7.802;2023-06-26T04:48:47;23.30;1.10
7325;DHT22;3703;48.016;7.802;2023-06-26T04:51:16;23.30;99.90
7325;DHT22;3703;48.016;7.802;2023-06-26T04:53:46;23.30;1.00
7325;DHT22;3703;48.016;7.802;2023-06-26T04:56:13;23.30;1.00
7325;DHT22;3703;48.016;7.802;2023-06-26T04:58:41;23.50;99.90
7325;DHT22;3703;48.016;7.802;2023-06-26T05:01:08;23.60;99.90
7325;DHT22;3703;48.016;7.802;2023-06-26T05:03:36;23.70;29.10
7325;DHT22;3703;48.016;7.802;2023-06-26T05:06:03;23.80;99.90
7325;DHT22;3703;48.016;7.802;2023-06-26T05:08:32;23.90;1.00
7325;DHT22;3703;48.016;7.802;2023-06-26T05:10:59;23.80;1.00
7325;DHT22;3703;48.016;7.802;2023-06-26T05:13:26;23.80;1.00
7325;DHT22;3703;48.016;7.802;2023-06-26T05:15:53;23.70;99.90
7325;DHT22;3703;48.016;7.802;2023-06-26T05:18:21;23.70;99.90
7325;DHT22;3703;48.016;7.802;2023-06-26T05:20:48;23.80;91.50
7325;DHT22;3703;48.016;7.802;2023-06-26T05:23:17;24.10;15.40
7325;DHT22;3703;48.016;7.802;2023-06-26T05:25:46;23.60;1.00
7325;DHT22;3703;48.016;7.802;2023-06-26T05:28:16;23.60;99.90
7325;DHT22;3703;48.016;7.802;2023-06-26T05:30:44;23.60;99.90
7325;DHT22;3703;48.016;7.802;2023-06-26T05:33:13;23.50;99.90
7325;DHT22;3703;48.016;7.802;2023-06-26T05:35:42;23.70;99.90
7325;DHT22;3703;48.016;7.802;2023-06-26T05:38:10;23.80;99.90
7325;DHT22;3703;48.016;7.802;2023-06-26T05:40:39;24.00;99.90
7325;DHT22;3703;48.016;7.802;2023-06-26T05:43:08;24.10;85.00
7325;DHT22;3703;48.016;7.802;2023-06-26T05:45:36;24.30;93.20
7325;DHT22;3703;48.016;7.802;2023-06-26T05:48:04;24.50;1.00
7325;DHT22;3703;48.016;7.802;2023-06-26T05:50:32;24.70;1.00
7325;DHT22;3703;48.016;7.802;2023-06-26T05:53:00;24.70;1.00
7325;DHT22;3703;48.016;7.802;2023-06-26T05:55:29;24.90;1.00
7325;DHT22;3703;48.016;7.802;2023-06-26T05:57:58;25.10;1.00
7325;DHT22;3703;48.016;7.802;2023-06-26T06:00:29;25.30;1.00
7325;DHT22;3703;48.016;7.802;2023-06-26T06:02:56;25.30;99.90
7325;DHT22;3703;48.016;7.802;2023-06-26T06:05:24;25.40;99.90
7325;DHT22;3703;48.016;7.802;2023-06-26T06:07:51;25.60;99.90
7325;DHT22;3703;48.016;7.802;2023-06-26T06:10:18;25.60;99.90
7325;DHT22;3703;48.016;7.802;2023-06-26T06:12:45;25.40;99.90
7325;DHT22;3703;48.016;7.802;2023-06-26T06:15:12;25.20;1.00
7325;DHT22;3703;48.016;7.802;2023-06-26T06:17:41;25.10;1.00
7325;DHT22;3703;48.016;7.802;2023-06-26T06:20:09;25.20;1.00
7325;DHT22;3703;48.016;7.802;2023-06-26T06:22:37;25.30;1.00
7325;DHT22;3703;48.016;7.802;2023-06-26T06:25:04;25.40;1.00
7325;DHT22;3703;48.016;7.802;2023-06-26T06:27:32;25.40;1.00
7325;DHT22;3703;48.016;7.802;2023-06-26T06:29:59;25.60;99.90
7325;DHT22;3703;48.016;7.802;2023-06-26T06:32:26;25.60;99.90
7325;DHT22;3703;48.016;7.802;2023-06-26T06:34:55;25.60;99.90
7325;DHT22;3703;48.016;7.802;2023-06-26T06:37:22;25.60;99.90
7325;DHT22;3703;48.016;7.802;2023-06-26T06:39:50;25.60;99.90
7325;DHT22;3703;48.016;7.802;2023-06-26T06:42:17;25.60;3.80
7325;DHT22;3703;48.016;7.802;2023-06-26T06:44:44;25.70;1.00
7325;DHT22;3703;48.016;7.802;2023-06-26T06:47:11;25.80;1.00
7325;DHT22;3703;48.016;7.802;2023-06-26T06:49:38;25.90;1.00
7325;DHT22;3703;48.016;7.802;2023-06-26T06:52:07;25.90;1.00
7325;DHT22;3703;48.016;7.802;2023-06-26T06:54:51;26.00;1.00
7325;DHT22;3703;48.016;7.802;2023-06-26T06:57:19;26.10;99.90
7325;DHT22;3703;48.016;7.802;2023-06-26T06:59:47;26.00;99.90
7325;DHT22;3703;48.016;7.802;2023-06-26T07:02:15;25.90;99.90
7325;DHT22;3703;48.016;7.802;2023-06-26T07:04:43;26.00;99.90
7325;DHT22;3703;48.016;7.802;2023-06-26T07:07:12;26.10;99.90
7325;DHT22;3703;48.016;7.802;2023-06-26T07:09:40;26.20;1.00
7325;DHT22;3703;48.016;7.802;2023-06-26T07:12:08;26.30;99.90
7325;DHT22;3703;48.016;7.802;2023-06-26T07:14:35;26.10;99.90
7325;DHT22;3703;48.016;7.802;2023-06-26T07:17:03;26.10;99.90
7325;DHT22;3703;48.016;7.802;2023-06-26T07:19:30;26.10;99.90
7325;DHT22;3703;48.016;7.802;2023-06-26T07:21:57;26.20;99.90
7325;DHT22;3703;48.016;7.802;2023-06-26T07:24:26;26.20;99.90
7325;DHT22;3703;48.016;7.802;2023-06-26T07:26:54;26.30;99.90
7325;DHT22;3703;48.016;7.802;2023-06-26T07:29:21;26.50;99.90
7325;DHT22;3703;48.016;7.802;2023-06-26T07:31:48;26.40;99.90
7325;DHT22;3703;48.016;7.802;2023-06-26T07:34:16;26.50;99.90
7325;DHT22;3703;48.016;7.802;2023-06-26T07:36:43;26.50;99.90
7325;DHT22;3703;48.016;7.802;2023-06-26T07:39:10;25.10;99.90
7325;DHT22;3703;48.016;7.802;2023-06-26T07:41:39;26.40;99.90
7325;DHT22;3703;48.016;7.802;2023-06-26T07:44:06;26.50;99.90
7325;DHT22;3703;48.016;7.802;2023-06-26T07:46:33;26.60;99.90
7325;DHT22;3703;48.016;7.802;2023-06-26T07:49:00;26.70;99.90
7325;DHT22;3703;48.016;7.802;2023-06-26T07:51:28;26.70;99.90
7325;DHT22;3703;48.016;7.802;2023-06-26T07:53:55;26.70;99.90
7325;DHT22;3703;48.016;7.802;2023-06-26T07:56:22;27.00;99.90
7325;DHT22;3703;48.016;7.802;2023-06-26T07:58:50;27.00;99.90
7325;DHT22;3703;48.016;7.802;2023-06-26T08:01:18;26.90;99.90
7325;DHT22;3703;48.016;7.802;2023-06-26T08:03:45;27.10;99.90
7325;DHT22;3703;48.016;7.802;2023-06-26T08:06:12;27.00;99.90
7325;DHT22;3703;48.016;7.802;2023-06-26T08:08:40;26.70;99.90
7325;DHT22;3703;48.016;7.802;2023-06-26T08:11:07;26.50;99.90
7325;DHT22;3703;48.016;7.802;2023-06-26T08:13:34;26.70;99.90
7325;DHT22;3703;48.016;7.802;2023-06-26T08:16:03;26.70;99.90
7325;DHT22;3703;48.016;7.802;2023-06-26T08:18:31;26.90;99.90
7325;DHT22;3703;48.016;7.802;2023-06-26T08:20:58;26.80;1.00
7325;DHT22;3703;48.016;7.802;2023-06-26T08:23:25;26.90;1.00
7325;DHT22;3703;48.016;7.802;2023-06-26T08:25:52;26.90;1.00
7325;DHT22;3703;48.016;7.802;2023-06-26T08:28:19;26.80;1.00
7325;DHT22;3703;48.016;7.802;2023-06-26T08:30:46;26.90;1.00
7325;DHT22;3703;48.016;7.802;2023-06-26T08:33:15;26.70;1.00
7325;DHT22;3703;48.016;7.802;2023-06-26T08:35:42;26.90;1.00
7325;DHT22;3703;48.016;7.802;2023-06-26T08:38:09;27.10;1.00
7325;DHT22;3703;48.016;7.802;2023-06-26T08:40:36;27.10;1.00
7325;DHT22;3703;48.016;7.802;2023-06-26T08:43:04;26.90;1.00
7325;DHT22;3703;48.016;7.802;2023-06-26T08:45:31;27.20;1.00
7325;DHT22;3703;48.016;7.802;2023-06-26T08:48:00;27.30;1.00
7325;DHT22;3703;48.016;7.802;2023-06-26T08:50:34;26.90;1.00
7325;DHT22;3703;48.016;7.802;2023-06-26T08:53:04;26.90;1.00
7325;DHT22;3703;48.016;7.802;2023-06-26T08:55:36;27.00;9.00
7325;DHT22;3703;48.016;7.802;2023-06-26T08:58:05;27.00;82.90
7325;DHT22;3703;48.016;7.802;2023-06-26T09:00:32;26.90;99.90
7325;DHT22;3703;48.016;7.802;2023-06-26T09:03:01;27.20;99.90
7325;DHT22;3703;48.016;7.802;2023-06-26T09:05:32;28.20;99.90
7325;DHT22;3703;48.016;7.802;2023-06-26T09:07:59;28.40;51.80
7325;DHT22;3703;48.016;7.802;2023-06-26T09:10:26;27.90;1.00
7325;DHT22;3703;48.016;7.802;2023-06-26T09:12:55;27.70;1.00
7325;DHT22;3703;48.016;7.802;2023-06-26T09:15:23;27.70;1.00
7325;DHT22;3703;48.016;7.802;2023-06-26T09:17:56;28.10;1.00
7325;DHT22;3703;48.016;7.802;2023-06-26T09:20:27;28.00;1.00
7325;DHT22;3703;48.016;7.802;2023-06-26T09:22:57;27.70;99.90
7325;DHT22;3703;48.016;7.802;2023-06-26T09:25:24;27.80;1.00
7325;DHT22;3703;48.016;7.802;2023-06-26T09:27:54;27.70;1.00
7325;DHT22;3703;48.016;7.802;2023-06-26T09:30:22;27.70;1.00
7325;DHT22;3703;48.016;7.802;2023-06-26T09:32:49;27.40;1.00
7325;DHT22;3703;48.016;7.802;2023-06-26T09:35:17;27.40;1.00
7325;DHT22;3703;48.016;7.802;2023-06-26T09:37:44;27.40;1.00
7325;DHT22;3703;48.016;7.802;2023-06-26T09:40:14;27.70;1.00
7325;DHT22;3703;48.016;7.802;2023-06-26T09:42:42;27.70;1.00
7325;DHT22;3703;48.016;7.802;2023-06-26T09:45:18;27.70;1.00
7325;DHT22;3703;48.016;7.802;2023-06-26T09:47:46;28.00;1.00
7325;DHT22;3703;48.016;7.802;2023-06-26T09:50:21;27.90;1.00
7325;DHT22;3703;48.016;7.802;2023-06-26T09:52:52;28.10;1.00
7325;DHT22;3703;48.016;7.802;2023-06-26T09:55:20;28.50;1.00
7325;DHT22;3703;48.016;7.802;2023-06-26T09:57:49;28.80;1.00
7325;DHT22;3703;48.016;7.802;2023-06-26T10:00:17;28.40;99.90
7325;DHT22;3703;48.016;7.802;2023-06-26T10:02:45;28.60;99.90
7325;DHT22;3703;48.016;7.802;2023-06-26T10:05:15;28.80;99.90
7325;DHT22;3703;48.016;7.802;2023-06-26T10:07:42;29.20;99.90
7325;DHT22;3703;48.016;7.802;2023-06-26T10:10:10;29.40;99.90
7325;DHT22;3703;48.016;7.802;2023-06-26T10:12:39;29.80;99.90
7325;DHT22;3703;48.016;7.802;2023-06-26T10:15:08;29.30;1.00
7325;DHT22;3703;48.016;7.802;2023-06-26T10:17:43;29.00;99.90
7325;DHT22;3703;48.016;7.802;2023-06-26T10:20:10;29.00;99.90
7325;DHT22;3703;48.016;7.802;2023-06-26T10:22:42;29.10;45.00
7325;DHT22;3703;48.016;7.802;2023-06-26T10:25:14;28.90;99.90
7325;DHT22;3703;48.016;7.802;2023-06-26T10:27:48;29.20;99.90
7325;DHT22;3703;48.016;7.802;2023-06-26T10:30:21;29.60;87.90
7325;DHT22;3703;48.016;7.802;2023-06-26T10:32:51;29.90;99.20
7325;DHT22;3703;48.016;7.802;2023-06-26T10:35:19;29.90;63.00
7325;DHT22;3703;48.016;7.802;2023-06-26T10:37:48;30.00;33.90
7325;DHT22;3703;48.016;7.802;2023-06-26T10:40:21;30.60;75.20
7325;DHT22;3703;48.016;7.802;2023-06-26T10:43:05;30.20;44.10
7325;DHT22;3703;48.016;7.802;2023-06-26T10:45:34;30.30;5.60
7325;DHT22;3703;48.016;7.802;2023-06-26T10:48:01;30.10;1.00
7325;DHT22;3703;48.016;7.802;2023-06-26T10:50:31;29.90;1.00
7325;DHT22;3703;48.016;7.802;2023-06-26T10:53:11;29.70;1.00
7325;DHT22;3703;48.016;7.802;2023-06-26T10:55:47;30.00;1.00
7325;DHT22;3703;48.016;7.802;2023-06-26T10:58:31;30.10;1.00
7325;DHT22;3703;48.016;7.802;2023-06-26T11:01:17;30.30;1.00
7325;DHT22;3703;48.016;7.802;2023-06-26T11:03:48;30.60;37.20
7325;DHT22;3703;48.016;7.802;2023-06-26T11:06:18;31.10;1.00
7325;DHT22;3703;48.016;7.802;2023-06-26T11:08:47;30.10;1.00
7325;DHT22;3703;48.016;7.802;2023-06-26T11:11:15;30.00;1.00
7325;DHT22;3703;48.016;7.802;2023-06-26T11:13:45;29.60;1.00
7325;DHT22;3703;48.016;7.802;2023-06-26T11:16:14;30.00;1.00
7325;DHT22;3703;48.016;7.802;2023-06-26T11:18:42;30.20;1.00
7325;DHT22;3703;48.016;7.802;2023-06-26T11:21:11;30.40;1.00
7325;DHT22;3703;48.016;7.802;2023-06-26T11:23:40;30.50;1.00
7325;DHT22;3703;48.016;7.802;2023-06-26T11:26:15;29.60;1.00
7325;DHT22;3703;48.016;7.802;2023-06-26T11:28:55;29.10;1.00
7325;DHT22;3703;48.016;7.802;2023-06-26T11:31:27;29.20;1.00
7325;DHT22;3703;48.016;7.802;2023-06-26T11:33:57;29.70;1.00
7325;DHT22;3703;48.016;7.802;2023-06-26T11:36:24;29.40;1.00
7325;DHT22;3703;48.016;7.802;2023-06-26T11:38:55;28.80;1.00
7325;DHT22;3703;48.016;7.802;2023-06-26T11:41:25;29.00;1.00
7325;DHT22;3703;48.016;7.802;2023-06-26T11:43:54;29.30;15.40
7325;DHT22;3703;48.016;7.802;2023-06-26T11:46:22;29.20;67.50
7325;DHT22;3703;48.016;7.802;2023-06-26T11:48:50;29.40;99.90
7325;DHT22;3703;48.016;7.802;2023-06-26T11:51:17;29.70;80.60
7325;DHT22;3703;48.016;7.802;2023-06-26T11:53:46;29.70;1.00
7325;DHT22;3703;48.016;7.802;2023-06-26T11:56:15;29.70;1.00
7325;DHT22;3703;48.016;7.802;2023-06-26T11:59:01;29.40;1.00
7325;DHT22;3703;48.016;7.802;2023-06-26T12:01:32;29.50;39.60
7325;DHT22;3703;48.016;7.802;2023-06-26T12:04:03;29.50;1.00
7325;DHT22;3703;48.016;7.802;2023-06-26T12:06:32;29.60;41.90
7325;DHT22;3703;48.016;7.802;2023-06-26T12:09:02;29.80;64.10
7325;DHT22;3703;48.016;7.802;2023-06-26T12:11:31;29.70;1.00
7325;DHT22;3703;48.016;7.802;2023-06-26T12:14:00;29.80;1.00
7325;DHT22;3703;48.016;7.802;2023-06-26T12:16:29;29.60;1.00
7325;DHT22;3703;48.016;7.802;2023-06-26T12:18:58;29.40;1.00
7325;DHT22;3703;48.016;7.802;2023-06-26T12:21:46;29.50;1.00
7325;DHT22;3703;48.016;7.802;2023-06-26T12:24:19;29.60;1.00
7325;DHT22;3703;48.016;7.802;2023-06-26T12:26:50;29.60;1.00
7325;DHT22;3703;48.016;7.802;2023-06-26T12:29:31;29.40;1.00
7325;DHT22;3703;48.016;7.802;2023-06-26T12:31:59;29.70;1.00
7325;DHT22;3703;48.016;7.802;2023-06-26T12:34:28;30.20;1.00
7325;DHT22;3703;48.016;7.802;2023-06-26T12:37:01;30.50;1.00
7325;DHT22;3703;48.016;7.802;2023-06-26T12:39:29;30.90;1.00
7325;DHT22;3703;48.016;7.802;2023-06-26T12:42:00;30.60;99.90
7325;DHT22;3703;48.016;7.802;2023-06-26T12:44:30;29.90;1.00
7325;DHT22;3703;48.016;7.802;2023-06-26T12:46:59;30.60;1.00
7325;DHT22;3703;48.016;7.802;2023-06-26T12:49:31;30.10;99.90
7325;DHT22;3703;48.016;7.802;2023-06-26T12:51:59;29.90;99.90
7325;DHT22;3703;48.016;7.802;2023-06-26T12:54:27;30.10;1.00
7325;DHT22;3703;48.016;7.802;2023-06-26T12:56:55;30.20;1.00
7325;DHT22;3703;48.016;7.802;2023-06-26T12:59:22;30.60;1.00
7325;DHT22;3703;48.016;7.802;2023-06-26T13:01:51;31.10;1.00
7325;DHT22;3703;48.016;7.802;2023-06-26T13:04:18;31.40;99.90
7325;DHT22;3703;48.016;7.802;2023-06-26T13:06:46;31.00;99.90
7325;DHT22;3703;48.016;7.802;2023-06-26T13:09:13;30.20;99.90
7325;DHT22;3703;48.016;7.802;2023-06-26T13:11:40;30.30;99.90
7325;DHT22;3703;48.016;7.802;2023-06-26T13:14:08;31.00;99.90
7325;DHT22;3703;48.016;7.802;2023-06-26T13:16:35;31.50;99.90
7325;DHT22;3703;48.016;7.802;2023-06-26T13:19:04;32.10;99.90
7325;DHT22;3703;48.016;7.802;2023-06-26T13:21:31;32.30;99.90
7325;DHT22;3703;48.016;7.802;2023-06-26T13:23:58;32.20;99.90
7325;DHT22;3703;48.016;7.802;2023-06-26T13:26:26;32.20;89.60
7325;DHT22;3703;48.016;7.802;2023-06-26T13:28:54;32.30;73.70
7325;DHT22;3703;48.016;7.802;2023-06-26T13:31:22;31.90;19.50
7325;DHT22;3703;48.016;7.802;2023-06-26T13:33:49;31.70;13.50
7325;DHT22;3703;48.016;7.802;2023-06-26T13:36:19;31.60;43.30
7325;DHT22;3703;48.016;7.802;2023-06-26T13:38:47;31.70;37.00
7325;DHT22;3703;48.016;7.802;2023-06-26T13:41:21;31.50;13.90
7325;DHT22;3703;48.016;7.802;2023-06-26T13:43:48;31.20;1.00
7325;DHT22;3703;48.016;7.802;2023-06-26T13:46:16;31.20;6.40
7325;DHT22;3703;48.016;7.802;2023-06-26T13:48:43;31.70;94.50
7325;DHT22;3703;48.016;7.802;2023-06-26T13:51:10;32.30;99.90
7325;DHT22;3703;48.016;7.802;2023-06-26T13:53:39;32.70;99.70
7325;DHT22;3703;48.016;7.802;2023-06-26T13:56:07;32.50;1.00
7325;DHT22;3703;48.016;7.802;2023-06-26T13:58:35;32.50;1.00
7325;DHT22;3703;48.016;7.802;2023-06-26T14:01:05;32.70;1.00
7325;DHT22;3703;48.016;7.802;2023-06-26T14:03:32;32.90;1.00
7325;DHT22;3703;48.016;7.802;2023-06-26T14:05:59;32.70;1.00
7325;DHT22;3703;48.016;7.802;2023-06-26T14:08:27;32.50;1.00
7325;DHT22;3703;48.016;7.802;2023-06-26T14:10:55;32.60;1.00
7325;DHT22;3703;48.016;7.802;2023-06-26T14:13:23;32.80;1.00
7325;DHT22;3703;48.016;7.802;2023-06-26T14:15:50;32.80;1.00
7325;DHT22;3703;48.016;7.802;2023-06-26T14:18:18;32.40;1.00
7325;DHT22;3703;48.016;7.802;2023-06-26T14:20:46;32.30;1.00
7325;DHT22;3703;48.016;7.802;2023-06-26T14:23:13;31.90;1.00
7325;DHT22;3703;48.016;7.802;2023-06-26T14:25:41;31.90;1.00
7325;DHT22;3703;48.016;7.802;2023-06-26T14:28:09;31.90;1.00
7325;DHT22;3703;48.016;7.802;2023-06-26T14:30:36;32.30;1.00
7325;DHT22;3703;48.016;7.802;2023-06-26T14:33:04;32.70;1.00
7325;DHT22;3703;48.016;7.802;2023-06-26T14:35:31;33.00;1.00
7325;DHT22;3703;48.016;7.802;2023-06-26T14:37:58;33.10;1.00
7325;DHT22;3703;48.016;7.802;2023-06-26T14:40:25;33.10;1.00
7325;DHT22;3703;48.016;7.802;2023-06-26T14:42:52;33.40;1.00
7325;DHT22;3703;48.016;7.802;2023-06-26T14:45:21;33.30;1.00
7325;DHT22;3703;48.016;7.802;2023-06-26T14:47:48;33.10;1.00
7325;DHT22;3703;48.016;7.802;2023-06-26T14:50:15;33.30;1.00
7325;DHT22;3703;48.016;7.802;2023-06-26T14:52:42;33.50;1.00
7325;DHT22;3703;48.016;7.802;2023-06-26T14:55:10;33.10;1.00
7325;DHT22;3703;48.016;7.802;2023-06-26T14:57:37;32.70;1.00
7325;DHT22;3703;48.016;7.802;2023-06-26T15:00:05;32.70;1.00
7325;DHT22;3703;48.016;7.802;2023-06-26T15:02:35;32.50;1.00
7325;DHT22;3703;48.016;7.802;2023-06-26T15:05:02;32.00;1.00
7325;DHT22;3703;48.016;7.802;2023-06-26T15:07:30;31.50;1.00
7325;DHT22;3703;48.016;7.802;2023-06-26T15:09:57;31.10;1.00
7325;DHT22;3703;48.016;7.802;2023-06-26T15:12:24;31.20;1.00
7325;DHT22;3703;48.016;7.802;2023-06-26T15:14:53;31.40;1.00
7325;DHT22;3703;48.016;7.802;2023-06-26T15:17:20;31.10;1.00
7325;DHT22;3703;48.016;7.802;2023-06-26T15:19:49;31.00;1.00
7325;DHT22;3703;48.016;7.802;2023-06-26T15:22:17;30.70;1.00
7325;DHT22;3703;48.016;7.802;2023-06-26T15:24:45;31.00;1.00
7325;DHT22;3703;48.016;7.802;2023-06-26T15:27:12;30.50;1.00
7325;DHT22;3703;48.016;7.802;2023-06-26T15:29:40;30.10;1.00
7325;DHT22;3703;48.016;7.802;2023-06-26T15:32:08;30.10;1.00
7325;DHT22;3703;48.016;7.802;2023-06-26T15:34:35;30.10;1.00
7325;DHT22;3703;48.016;7.802;2023-06-26T15:37:04;30.50;1.00
7325;DHT22;3703;48.016;7.802;2023-06-26T15:39:32;30.60;1.00
7325;DHT22;3703;48.016;7.802;2023-06-26T15:41:59;30.20;1.00
7325;DHT22;3703;48.016;7.802;2023-06-26T15:44:28;30.00;1.00
7325;DHT22;3703;48.016;7.802;2023-06-26T15:46:56;30.20;1.00
7325;DHT22;3703;48.016;7.802;2023-06-26T15:49:23;29.90;1.00
7325;DHT22;3703;48.016;7.802;2023-06-26T15:51:50;30.10;1.00
7325;DHT22;3703;48.016;7.802;2023-06-26T15:54:19;30.00;1.00
7325;DHT22;3703;48.016;7.802;2023-06-26T15:56:47;30.20;1.00
7325;DHT22;3703;48.016;7.802;2023-06-26T15:59:14;30.20;1.00
7325;DHT22;3703;48.016;7.802;2023-06-26T16:01:44;30.10;1.00
7325;DHT22;3703;48.016;7.802;2023-06-26T16:04:14;30.00;1.00
7325;DHT22;3703;48.016;7.802;2023-06-26T16:06:41;29.90;1.00
7325;DHT22;3703;48.016;7.802;2023-06-26T16:09:08;29.90;1.00
7325;DHT22;3703;48.016;7.802;2023-06-26T16:11:37;30.50;1.00
7325;DHT22;3703;48.016;7.802;2023-06-26T16:14:05;29.80;1.00
7325;DHT22;3703;48.016;7.802;2023-06-26T16:16:32;29.80;1.00
7325;DHT22;3703;48.016;7.802;2023-06-26T16:19:00;30.10;1.00
7325;DHT22;3703;48.016;7.802;2023-06-26T16:21:28;29.70;1.00